Time;durP1;ratioP1;P1;durP2;ratioP2;P2;SDS_P1;SDS_P2;PMS_P1;PMS_P2;Temp;Humidity;BMP_temperature;BMP_pressure;BME280_temperature;BME280_humidity;BME280_pressure;Samples;Min_cycle;Max_cycle;Signal;HPM_P1;HPM_P2
2022/07/05 00:00:05;;;;;;;1.98;1.80;;;;;;;;;;6276506;22;20175;-90
2022/07/05 00:05:19;;;;;;;1.77;1.67;;;;;;;;;;6273783;22;20183;-89
2022/07/05 00:07:54;;;;;;;1.90;1.80;;;;;;;;;;6275746;22;20205;-88
2022/07/05 00:10:24;;;;;;;2.20;2.00;;;;;;;;;;6276748;22;20168;-89
2022/07/05 00:12:55;;;;;;;1.75;1.65;;;;;;;;;;6276441;22;20195;-89
2022/07/05 00:15:27;;;;;;;2.05;1.80;;;;;;;;;;6274373;22;20619;-90
2022/07/05 00:17:59;;;;;;;2.20;2.10;;;;;;;;;;6277660;22;20251;-89
2022/07/05 00:20:32;;;;;;;1.70;1.60;;;;;;;;;;6274994;22;20175;-90
2022/07/05 00:23:04;;;;;;;2.00;1.80;;;;;;;;;;6276231;22;20266;-88
2022/07/05 00:25:36;;;;;;;2.00;1.85;;;;;;;;;;6277982;22;20168;-88
2022/07/05 00:28:10;;;;;;;1.90;1.80;;;;;;;;;;6277544;22;20164;-89
2022/07/05 00:30:40;;;;;;;2.20;2.00;;;;;;;;;;6274960;22;20171;-90
2022/07/05 00:33:09;;;;;;;1.98;1.88;;;;;;;;;;6276725;22;20206;-89
2022/07/05 00:35:42;;;;;;;1.75;1.65;;;;;;;;;;6275852;22;20486;-91
2022/07/05 00:38:11;;;;;;;2.15;1.80;;;;;;;;;;6275580;22;20176;-90
2022/07/05 00:40:45;;;;;;;2.05;1.90;;;;;;;;;;6275868;22;20172;-90
2022/07/05 00:43:22;;;;;;;2.05;1.83;;;;;;;;;;6275889;22;20690;-91
2022/07/05 00:45:49;;;;;;;2.40;2.05;;;;;;;;;;6275648;22;20167;-91
2022/07/05 00:48:19;;;;;;;1.95;1.85;;;;;;;;;;6275817;22;20229;-90
2022/07/05 00:50:49;;;;;;;1.85;1.75;;;;;;;;;;6275950;22;20221;-90
2022/07/05 00:53:18;;;;;;;1.70;1.60;;;;;;;;;;6275783;22;20178;-90
2022/07/05 00:55:46;;;;;;;1.80;1.70;;;;;;;;;;6275639;22;20172;-92
2022/07/05 00:58:16;;;;;;;1.70;1.60;;;;;;;;;;6276117;22;20226;-90
2022/07/05 01:00:46;;;;;;;1.80;1.70;;;;;;;;;;6275380;22;20172;-91
2022/07/05 01:03:17;;;;;;;2.05;1.65;;;;;;;;;;6275590;22;20188;-90
2022/07/05 01:05:53;;;;;;;1.60;1.50;;;;;;;;;;6275552;22;20183;-90
2022/07/05 01:08:25;;;;;;;2.05;1.85;;;;;;;;;;6275827;22;20214;-90
2022/07/05 01:10:56;;;;;;;2.28;1.80;;;;;;;;;;6275417;22;20176;-90
2022/07/05 01:13:26;;;;;;;1.80;1.70;;;;;;;;;;6275588;22;20172;-90
2022/07/05 01:15:57;;;;;;;1.80;1.70;;;;;;;;;;6275360;22;20191;-90
2022/07/05 01:18:25;;;;;;;1.70;1.60;;;;;;;;;;6275801;22;20235;-90
2022/07/05 01:20:52;;;;;;;1.73;1.63;;;;;;;;;;6275204;22;20171;-90
2022/07/05 01:23:22;;;;;;;1.88;1.73;;;;;;;;;;6275476;22;20194;-90
2022/07/05 01:25:51;;;;;;;1.80;1.70;;;;;;;;;;6274861;22;20225;-90
2022/07/05 01:28:20;;;;;;;1.60;1.50;;;;;;;;;;6275703;22;20250;-90
2022/07/05 01:30:51;;;;;;;1.85;1.75;;;;;;;;;;6275429;22;20172;-90
2022/07/05 01:33:19;;;;;;;1.73;1.63;;;;;;;;;;6275225;22;20206;-90
2022/07/05 01:35:49;;;;;;;1.52;1.42;;;;;;;;;;6275150;22;20168;-91
2022/07/05 01:38:17;;;;;;;1.85;1.67;;;;;;;;;;6275295;22;20179;-89
2022/07/05 01:40:51;;;;;;;1.92;1.80;;;;;;;;;;6275120;22;20168;-89
2022/07/05 01:43:20;;;;;;;1.95;1.85;;;;;;;;;;6275456;22;20214;-89
2022/07/05 01:45:48;;;;;;;2.10;1.80;;;;;;;;;;6274641;22;20183;-89
2022/07/05 01:48:18;;;;;;;1.92;1.80;;;;;;;;;;6275607;22;20174;-89
2022/07/05 01:50:47;;;;;;;1.70;1.60;;;;;;;;;;6274797;22;20198;-89
2022/07/05 01:53:20;;;;;;;1.70;1.60;;;;;;;;;;6275107;22;20230;-90
2022/07/05 01:55:51;;;;;;;1.73;1.63;;;;;;;;;;6275006;22;20178;-89
2022/07/05 01:58:19;;;;;;;1.60;1.50;;;;;;;;;;6275292;22;20186;-91
2022/07/05 02:00:47;;;;;;;1.63;1.52;;;;;;;;;;6275693;22;20233;-89
2022/07/05 02:03:14;;;;;;;1.90;1.80;;;;;;;;;;6274876;22;20245;-89
2022/07/05 02:05:42;;;;;;;1.65;1.55;;;;;;;;;;6274872;22;20171;-90
2022/07/05 02:08:09;;;;;;;1.90;1.80;;;;;;;;;;6275611;22;20175;-90
2022/07/05 02:10:39;;;;;;;1.80;1.70;;;;;;;;;;6275291;22;20172;-90
2022/07/05 02:13:16;;;;;;;1.63;1.48;;;;;;;;;;6275087;22;20168;-89
2022/07/05 02:15:47;;;;;;;1.85;1.70;;;;;;;;;;6274750;22;20167;-90
2022/07/05 02:18:15;;;;;;;1.70;1.60;;;;;;;;;;6275281;22;20171;-90
2022/07/05 02:20:44;;;;;;;1.70;1.60;;;;;;;;;;6275200;22;20167;-90
2022/07/05 02:23:12;;;;;;;1.98;1.80;;;;;;;;;;6275104;22;20214;-90
2022/07/05 02:25:43;;;;;;;1.83;1.73;;;;;;;;;;6275197;22;20222;-88
2022/07/05 02:28:14;;;;;;;1.67;1.58;;;;;;;;;;6275445;22;20180;-90
2022/07/05 02:30:45;;;;;;;2.08;1.60;;;;;;;;;;6274859;22;20166;-89
2022/07/05 02:33:12;;;;;;;1.77;1.67;;;;;;;;;;6274986;22;20160;-90
2022/07/05 02:35:45;;;;;;;1.73;1.63;;;;;;;;;;6274647;22;20519;-90
2022/07/05 02:38:12;;;;;;;1.58;1.42;;;;;;;;;;6275760;22;20176;-90
2022/07/05 02:40:41;;;;;;;2.17;1.80;;;;;;;;;;6274582;22;20229;-90
2022/07/05 02:43:08;;;;;;;1.40;1.30;;;;;;;;;;6275019;22;20237;-90
2022/07/05 02:45:40;;;;;;;1.80;1.70;;;;;;;;;;6274564;22;20226;-93
2022/07/05 02:48:17;;;;;;;1.70;1.60;;;;;;;;;;6275050;22;20172;-90
2022/07/05 02:50:47;;;;;;;1.65;1.55;;;;;;;;;;6274706;22;20700;-90
2022/07/05 02:53:14;;;;;;;2.17;1.80;;;;;;;;;;6274681;22;20180;-90
2022/07/05 02:55:46;;;;;;;1.85;1.70;;;;;;;;;;6274360;22;20198;-90
2022/07/05 02:58:14;;;;;;;1.63;1.50;;;;;;;;;;6274384;22;20164;-90
2022/07/05 03:00:47;;;;;;;1.90;1.80;;;;;;;;;;6272579;22;20229;-90
2022/07/05 03:03:14;;;;;;;1.60;1.50;;;;;;;;;;6273001;22;20184;-90
2022/07/05 03:05:45;;;;;;;1.60;1.50;;;;;;;;;;6272737;22;20223;-90
2022/07/05 03:08:14;;;;;;;1.80;1.70;;;;;;;;;;6274627;22;20180;-90
2022/07/05 03:10:42;;;;;;;1.50;1.40;;;;;;;;;;6274051;22;20172;-90
2022/07/05 03:13:12;;;;;;;1.83;1.73;;;;;;;;;;6275164;22;20175;-90
2022/07/05 03:15:39;;;;;;;1.88;1.77;;;;;;;;;;6274796;22;20174;-90
2022/07/05 03:18:11;;;;;;;2.13;1.70;;;;;;;;;;6274796;22;20206;-90
2022/07/05 03:20:38;;;;;;;1.70;1.60;;;;;;;;;;6274802;22;20164;-90
2022/07/05 03:23:08;;;;;;;1.52;1.42;;;;;;;;;;6274546;22;20191;-88
2022/07/05 03:25:40;;;;;;;1.95;1.70;;;;;;;;;;6274821;22;20172;-90
2022/07/05 03:28:12;;;;;;;1.65;1.55;;;;;;;;;;6274565;22;20179;-90
2022/07/05 03:30:42;;;;;;;1.92;1.70;;;;;;;;;;6274874;22;20241;-89
2022/07/05 03:33:34;;;;;;;2.00;1.77;;;;;;;;;;6273850;22;20168;-90
2022/07/05 03:36:08;;;;;;;1.73;1.63;;;;;;;;;;6224887;22;20252;-90
2022/07/05 03:38:48;;;;;;;1.73;1.60;;;;;;;;;;6274582;22;20182;-90
2022/07/05 03:41:21;;;;;;;1.67;1.58;;;;;;;;;;6274774;22;20188;-90
2022/07/05 03:43:53;;;;;;;1.73;1.63;;;;;;;;;;6274386;22;20190;-90
2022/07/05 03:46:24;;;;;;;1.60;1.50;;;;;;;;;;6274824;22;20179;-89
2022/07/05 03:48:52;;;;;;;1.67;1.58;;;;;;;;;;6275243;22;20238;-90
2022/07/05 03:51:24;;;;;;;1.77;1.65;;;;;;;;;;6276011;22;20194;-89
2022/07/05 03:53:56;;;;;;;1.40;1.30;;;;;;;;;;6276529;22;20167;-90
2022/07/05 03:56:25;;;;;;;2.17;1.70;;;;;;;;;;6276100;22;20230;-89
2022/07/05 03:59:04;;;;;;;1.98;1.83;;;;;;;;;;6276818;22;20175;-91
2022/07/05 04:04:32;;;;;;;1.70;1.60;;;;;;;;;;6276029;22;20238;-89
2022/07/05 04:07:07;;;;;;;2.05;1.85;;;;;;;;;;6276764;22;20164;-90
2022/07/05 04:09:36;;;;;;;1.80;1.70;;;;;;;;;;6276189;22;20221;-88
2022/07/05 04:12:04;;;;;;;1.50;1.40;;;;;;;;;;6275831;22;20245;-90
2022/07/05 04:14:36;;;;;;;1.90;1.80;;;;;;;;;;6276839;22;20168;-90
2022/07/05 04:17:14;;;;;;;2.15;1.70;;;;;;;;;;6275987;22;20222;-89
2022/07/05 04:19:49;;;;;;;1.70;1.60;;;;;;;;;;6276903;22;20198;-90
2022/07/05 04:22:20;;;;;;;3.72;1.85;;;;;;;;;;6275921;22;20191;-90
2022/07/05 04:27:38;;;;;;;1.77;1.67;;;;;;;;;;6276185;22;20170;-91
2022/07/05 04:30:05;;;;;;;2.00;1.80;;;;;;;;;;6275781;22;20175;-90
2022/07/05 04:32:38;;;;;;;1.92;1.77;;;;;;;;;;6276314;22;20192;-89
2022/07/05 04:35:06;;;;;;;1.67;1.58;;;;;;;;;;6276681;22;20202;-88
2022/07/05 04:37:35;;;;;;;3.33;2.00;;;;;;;;;;6275629;22;20171;-89
2022/07/05 04:40:03;;;;;;;2.25;2.00;;;;;;;;;;6275506;22;20195;-88
2022/07/05 04:42:31;;;;;;;2.38;1.70;;;;;;;;;;6275930;22;20192;-89
2022/07/05 04:44:58;;;;;;;5.13;1.92;;;;;;;;;;6276407;22;20257;-89
2022/07/05 04:47:42;;;;;;;3.50;1.70;;;;;;;;;;6276225;22;20172;-92
2022/07/05 04:50:13;;;;;;;3.05;2.00;;;;;;;;;;6275631;22;20237;-87
2022/07/05 04:53:12;;;;;;;2.13;1.77;;;;;;;;;;6275666;22;20203;-89
2022/07/05 04:56:15;;;;;;;2.80;2.00;;;;;;;;;;6274680;22;20286;-89
2022/07/05 04:59:23;;;;;;;4.72;2.10;;;;;;;;;;6276249;22;20163;-90
2022/07/05 05:05:36;;;;;;;4.63;2.17;;;;;;;;;;6213204;23;20252;-89
2022/07/05 05:11:19;;;;;;;3.95;2.10;;;;;;;;;;6210884;23;20284;-89
2022/07/05 05:14:35;;;;;;;3.28;1.88;;;;;;;;;;6212424;23;20169;-91
2022/07/05 05:50:43;;;;;;;17.98;8.32;;;;;;;;;;6153688;23;20246;-88
2022/07/05 09:57:45;;;;;;;2.17;1.30;;;;;;;;;;6276361;22;20174;-90
2022/07/05 10:27:27;;;;;;;3.53;1.60;;;;;;;;;;6273415;22;20254;-89
2022/07/05 10:30:08;;;;;;;4.15;1.83;;;;;;;;;;6275574;22;20175;-89
2022/07/05 10:35:21;;;;;;;3.45;1.50;;;;;;;;;;6264372;22;20171;-88
2022/07/05 10:37:54;;;;;;;2.35;1.60;;;;;;;;;;6275606;22;20255;-88
2022/07/05 10:40:36;;;;;;;1.92;1.30;;;;;;;;;;6275369;22;20221;-86
2022/07/05 10:46:06;;;;;;;;;;;;;;;;;;;;;
2022/07/05 10:49:01;;;;;;;2.00;1.55;;;;;;;;;;6275731;22;20145;-93
2022/07/05 10:54:41;;;;;;;2.25;1.40;;;;;;;;;;6273027;22;20188;-88
2022/07/05 10:57:30;;;;;;;3.63;1.20;;;;;;;;;;6276922;22;20182;-90
2022/07/05 11:11:48;;;;;;;23.35;3.75;;;;;;;;;;6220398;23;20169;-91
2022/07/05 11:55:03;;;;;;;1.40;1.10;;;;;;;;;;6232266;22;20441;-87
2022/07/05 12:04:12;;;;;;;1.42;1.10;;;;;;;;;;6037584;23;20180;-88
2022/07/05 12:47:26;;;;;;;1.65;1.30;;;;;;;;;;6327326;22;20183;-87
2022/07/05 12:58:57;;;;;;;12.63;5.07;;;;;;;;;;6251103;22;20174;-87
2022/07/05 13:16:43;;;;;;;20.27;8.93;;;;;;;;;;6212809;23;20175;-86
2022/07/05 13:19:17;;;;;;;18.30;7.60;;;;;;;;;;6212366;23;20177;-85
2022/07/05 13:21:50;;;;;;;13.65;6.25;;;;;;;;;;6212912;23;20174;-87
2022/07/05 13:30:40;;;;;;;7.60;4.15;;;;;;;;;;6095715;23;20171;-85
2022/07/05 13:33:14;;;;;;;7.45;4.13;;;;;;;;;;6214067;23;20192;-85
2022/07/05 13:35:43;;;;;;;8.10;4.10;;;;;;;;;;6215565;23;20185;-85
2022/07/05 13:38:14;;;;;;;7.60;3.70;;;;;;;;;;6214284;23;20184;-88
2022/07/05 13:40:46;;;;;;;4.75;3.10;;;;;;;;;;6215258;23;20173;-85
2022/07/05 13:43:13;;;;;;;6.85;3.20;;;;;;;;;;6215813;23;20165;-85
2022/07/05 13:45:43;;;;;;;4.10;2.40;;;;;;;;;;6215380;23;20197;-88
2022/07/05 13:48:13;;;;;;;4.20;2.45;;;;;;;;;;6265358;22;20182;-88
2022/07/05 13:51:03;;;;;;;4.18;2.35;;;;;;;;;;6276429;22;20171;-86
2022/07/05 13:53:33;;;;;;;4.88;2.08;;;;;;;;;;6309863;22;20167;-85
2022/07/05 13:56:31;;;;;;;3.35;1.95;;;;;;;;;;6310218;22;20258;-85
2022/07/05 13:59:17;;;;;;;2.70;1.95;;;;;;;;;;6312614;22;20173;-87
2022/07/05 14:04:54;;;;;;;2.25;1.77;;;;;;;;;;6312184;22;20194;-86
2022/07/05 14:07:41;;;;;;;2.58;1.85;;;;;;;;;;6310419;22;20627;-87
2022/07/05 14:10:22;;;;;;;2.25;1.48;;;;;;;;;;6308626;22;20166;-88
2022/07/05 14:12:55;;;;;;;3.38;1.70;;;;;;;;;;6308012;22;20219;-87
2022/07/05 14:15:25;;;;;;;3.13;1.80;;;;;;;;;;6307855;22;20258;-87
2022/07/05 14:20:57;;;;;;;2.67;1.70;;;;;;;;;;6308272;22;20167;-88
2022/07/05 14:23:30;;;;;;;2.03;1.58;;;;;;;;;;6308032;22;20167;-86
2022/07/05 14:26:06;;;;;;;1.92;1.50;;;;;;;;;;6307033;22;20197;-88
2022/07/05 14:28:35;;;;;;;2.30;1.55;;;;;;;;;;6307886;22;20193;-86
2022/07/05 14:31:02;;;;;;;2.15;1.60;;;;;;;;;;6306923;22;20246;-88
2022/07/05 14:33:31;;;;;;;2.08;1.60;;;;;;;;;;6307368;22;20190;-87
2022/07/05 14:36:26;;;;;;;1.45;1.30;;;;;;;;;;6307593;22;20183;-88
2022/07/05 14:39:03;;;;;;;1.50;1.38;;;;;;;;;;6213694;23;20173;-87
2022/07/05 14:44:24;;;;;;;1.40;1.30;;;;;;;;;;6211050;23;20201;-88
2022/07/05 14:47:05;;;;;;;2.05;1.40;;;;;;;;;;6212191;23;20223;-88
2022/07/05 14:49:38;;;;;;;2.50;1.50;;;;;;;;;;6212982;23;20248;-88
2022/07/05 14:57:56;;;;;;;1.70;1.40;;;;;;;;;;6209283;23;20502;-86
2022/07/05 15:03:39;;;;;;;1.50;1.40;;;;;;;;;;6212412;23;20196;-87
2022/07/05 15:06:39;;;;;;;1.65;1.20;;;;;;;;;;6212527;23;20203;-86
2022/07/05 15:12:47;;;;;;;1.50;1.40;;;;;;;;;;6213477;23;20165;-88
2022/07/05 15:15:18;;;;;;;1.10;1.10;;;;;;;;;;6226198;22;20184;-87
2022/07/05 15:21:22;;;;;;;1.55;1.35;;;;;;;;;;6253528;22;20175;-88
2022/07/05 15:24:08;;;;;;;1.77;1.20;;;;;;;;;;6276892;22;20183;-87
2022/07/05 15:32:55;;;;;;;1.23;1.20;;;;;;;;;;6274779;22;20203;-89
2022/07/05 15:35:30;;;;;;;1.30;1.20;;;;;;;;;;6271742;22;20191;-87
2022/07/05 15:38:00;;;;;;;1.42;1.30;;;;;;;;;;6276502;22;20175;-89
2022/07/05 15:40:39;;;;;;;1.50;1.40;;;;;;;;;;6276485;22;20191;-87
2022/07/05 15:43:10;;;;;;;1.33;1.23;;;;;;;;;;6276683;22;20243;-88
2022/07/05 15:45:38;;;;;;;2.28;1.60;;;;;;;;;;6277206;22;20242;-86
2022/07/05 15:48:09;;;;;;;1.40;1.30;;;;;;;;;;6302540;22;20182;-88
2022/07/05 16:00:21;;;;;;;2.45;1.50;;;;;;;;;;6308970;22;20138;-87
2022/07/05 16:03:04;;;;;;;1.35;1.30;;;;;;;;;;6307595;22;20175;-87
2022/07/05 16:05:56;;;;;;;1.48;1.30;;;;;;;;;;6307218;22;20191;-85
2022/07/05 16:08:44;;;;;;;1.40;1.30;;;;;;;;;;6307707;22;20491;-88
2022/07/05 16:14:21;;;;;;;2.00;1.27;;;;;;;;;;6306823;22;20167;-88
2022/07/05 16:17:21;;;;;;;1.60;1.50;;;;;;;;;;6308151;22;20175;-87
2022/07/05 16:19:57;;;;;;;1.95;1.20;;;;;;;;;;6271805;22;20179;-87
2022/07/05 16:22:30;;;;;;;1.65;1.30;;;;;;;;;;6308055;22;20159;-88
2022/07/05 16:25:17;;;;;;;2.35;1.15;;;;;;;;;;6307595;22;20601;-88
2022/07/05 16:40:21;;;;;;;1.83;1.42;;;;;;;;;;6104986;23;20167;-88
2022/07/05 16:42:54;;;;;;;2.42;1.40;;;;;;;;;;6123479;23;20168;-86
2022/07/05 16:45:37;;;;;;;1.92;1.08;;;;;;;;;;6123713;23;20644;-88
2022/07/05 16:48:27;;;;;;;1.50;1.40;;;;;;;;;;6124339;23;20179;-87
2022/07/05 16:51:10;;;;;;;1.30;1.20;;;;;;;;;;6123708;23;20190;-87
2022/07/05 16:53:49;;;;;;;1.42;1.33;;;;;;;;;;6124305;23;20198;-88
2022/07/05 16:59:27;;;;;;;1.25;1.15;;;;;;;;;;6119952;23;20179;-87
2022/07/05 17:08:20;;;;;;;1.48;1.30;;;;;;;;;;6036815;23;20173;-89
2022/07/05 17:10:59;;;;;;;1.30;1.20;;;;;;;;;;6111748;23;20175;-88
2022/07/05 17:29:33;;;;;;;2.28;1.50;;;;;;;;;;6214276;23;20185;-87
2022/07/05 17:35:28;;;;;;;1.58;1.48;;;;;;;;;;6100787;23;20311;-87
2022/07/05 17:43:43;;;;;;;1.45;1.30;;;;;;;;;;6211457;23;20177;-87
2022/07/05 17:46:25;;;;;;;2.15;1.27;;;;;;;;;;6213364;23;20253;-88
2022/07/05 17:49:13;;;;;;;3.38;1.50;;;;;;;;;;6214252;23;20177;-89
2022/07/05 17:52:00;;;;;;;1.95;1.48;;;;;;;;;;6213449;23;20165;-88
2022/07/05 17:54:42;;;;;;;1.48;1.17;;;;;;;;;;6213156;23;20197;-90
2022/07/05 18:12:55;;;;;;;1.58;1.23;;;;;;;;;;6269390;22;20664;-88
2022/07/05 18:45:28;;;;;;;2.72;1.42;;;;;;;;;;6209360;23;20194;-87
2022/07/05 20:15:42;;;;;;;17.20;6.07;;;;;;;;;;6272134;22;20261;-92
2022/07/05 20:18:17;;;;;;;18.95;7.80;;;;;;;;;;6269040;22;20188;-91
2022/07/05 20:20:44;;;;;;;20.58;7.95;;;;;;;;;;6277263;22;20167;-91
2022/07/05 20:23:16;;;;;;;18.33;8.85;;;;;;;;;;6278201;22;20205;-91
2022/07/05 20:25:52;;;;;;;15.75;7.82;;;;;;;;;;6277761;22;20187;-91
2022/07/05 20:28:23;;;;;;;18.40;7.10;;;;;;;;;;6277857;22;20196;-91
2022/07/05 20:34:15;;;;;;;13.25;6.10;;;;;;;;;;6275537;22;20180;-91
2022/07/05 20:36:55;;;;;;;14.55;6.38;;;;;;;;;;6276514;22;20199;-91
2022/07/05 20:39:27;;;;;;;13.27;5.63;;;;;;;;;;6278123;22;20171;-92
2022/07/05 20:44:56;;;;;;;12.63;5.90;;;;;;;;;;6275533;22;20170;-92
2022/07/05 20:47:46;;;;;;;10.68;5.55;;;;;;;;;;6277825;22;20202;-92
2022/07/05 20:50:19;;;;;;;10.43;5.57;;;;;;;;;;6279779;22;20221;-93
2022/07/05 20:52:58;;;;;;;10.63;5.13;;;;;;;;;;6278589;22;20164;-91
2022/07/05 20:58:10;;;;;;;11.45;4.97;;;;;;;;;;6274312;22;20230;-94
2022/07/05 21:00:50;;;;;;;9.70;5.28;;;;;;;;;;6281092;22;20164;-91
2022/07/05 21:06:37;;;;;;;8.02;4.72;;;;;;;;;;6278699;22;20275;-91
2022/07/05 21:12:39;;;;;;;;;;;;;;;;;;;;;
2022/07/05 21:15:27;;;;;;;7.93;4.60;;;;;;;;;;6218459;22;20172;-94
2022/07/05 21:18:11;;;;;;;7.63;4.65;;;;;;;;;;6265732;22;20264;-91
2022/07/05 21:20:42;;;;;;;9.38;4.10;;;;;;;;;;6284578;22;20160;-94
2022/07/05 21:26:08;;;;;;;8.13;4.30;;;;;;;;;;6298972;22;20186;-91
2022/07/05 21:31:49;;;;;;;6.80;4.10;;;;;;;;;;6251380;22;20190;-93
2022/07/05 21:40:50;;;;;;;6.10;3.85;;;;;;;;;;6294191;22;20220;-94
2022/07/05 21:52:01;;;;;;;5.63;3.88;;;;;;;;;;6282162;22;20182;-92
2022/07/05 21:54:34;;;;;;;6.88;4.05;;;;;;;;;;6280889;22;20261;-93
2022/07/05 21:57:10;;;;;;;5.05;3.75;;;;;;;;;;6282483;22;20156;-91
2022/07/05 22:05:15;;;;;;;6.25;3.85;;;;;;;;;;6276425;22;20167;-91
2022/07/05 22:07:45;;;;;;;7.10;3.78;;;;;;;;;;6278126;22;20271;-92
2022/07/05 22:10:31;;;;;;;6.18;3.55;;;;;;;;;;6277771;22;20160;-92
2022/07/05 22:13:20;;;;;;;5.45;3.10;;;;;;;;;;6276766;22;20186;-93
2022/07/05 22:15:47;;;;;;;5.82;3.67;;;;;;;;;;6275797;22;20170;-92
2022/07/05 22:20:58;;;;;;;6.65;3.53;;;;;;;;;;6275631;22;20168;-91
2022/07/05 22:23:26;;;;;;;6.53;3.75;;;;;;;;;;6277223;22;20239;-92
2022/07/05 22:25:59;;;;;;;5.55;3.25;;;;;;;;;;6277072;22;20205;-93
2022/07/05 22:28:42;;;;;;;5.35;3.40;;;;;;;;;;6276397;22;20222;-92
2022/07/05 22:31:11;;;;;;;5.38;3.28;;;;;;;;;;6271295;22;20206;-92
2022/07/05 22:33:39;;;;;;;4.50;3.30;;;;;;;;;;6277470;22;20168;-92
2022/07/05 22:36:07;;;;;;;4.78;3.30;;;;;;;;;;6276839;22;20168;-92
2022/07/05 22:38:34;;;;;;;4.75;3.47;;;;;;;;;;6276242;22;20192;-93
2022/07/05 22:41:02;;;;;;;5.03;2.97;;;;;;;;;;6276890;22;20168;-92
2022/07/05 22:43:29;;;;;;;4.25;3.08;;;;;;;;;;6277250;22;20176;-93
2022/07/05 22:45:57;;;;;;;3.42;2.95;;;;;;;;;;6276511;22;20175;-91
2022/07/05 22:48:29;;;;;;;3.67;2.90;;;;;;;;;;6276065;22;20242;-92
2022/07/05 22:50:56;;;;;;;4.53;3.20;;;;;;;;;;6277074;22;20600;-91
2022/07/05 22:53:30;;;;;;;5.03;2.95;;;;;;;;;;6277175;22;20172;-89
2022/07/05 22:56:03;;;;;;;5.05;2.97;;;;;;;;;;6244880;23;20186;-91
2022/07/05 22:58:36;;;;;;;4.65;3.30;;;;;;;;;;6244807;22;20219;-92
2022/07/05 23:01:08;;;;;;;4.57;3.25;;;;;;;;;;6245033;23;20195;-92
2022/07/05 23:03:40;;;;;;;4.78;3.22;;;;;;;;;;6246159;23;20179;-91
2022/07/05 23:06:10;;;;;;;5.63;3.10;;;;;;;;;;6245127;23;20168;-92
2022/07/05 23:08:38;;;;;;;5.40;3.03;;;;;;;;;;6245428;22;20198;-93
2022/07/05 23:11:05;;;;;;;4.95;3.08;;;;;;;;;;6245430;23;20194;-92
2022/07/05 23:13:35;;;;;;;5.00;3.33;;;;;;;;;;6244647;23;20179;-92
2022/07/05 23:16:10;;;;;;;4.25;3.13;;;;;;;;;;6245198;23;20173;-90
2022/07/05 23:18:39;;;;;;;3.60;2.75;;;;;;;;;;6245699;22;20203;-91
2022/07/05 23:21:21;;;;;;;4.70;3.05;;;;;;;;;;6246883;23;20173;-92
2022/07/05 23:26:34;;;;;;;4.32;2.72;;;;;;;;;;6244483;23;20207;-93
2022/07/05 23:29:03;;;;;;;3.15;2.67;;;;;;;;;;6246176;22;20192;-93
2022/07/05 23:31:33;;;;;;;4.50;2.60;;;;;;;;;;6246694;23;20177;-92
2022/07/05 23:34:06;;;;;;;3.70;2.90;;;;;;;;;;6246884;23;20183;-92
2022/07/05 23:36:36;;;;;;;4.68;3.10;;;;;;;;;;6245770;23;20168;-93
2022/07/05 23:39:03;;;;;;;3.65;2.83;;;;;;;;;;6247747;22;20645;-92
2022/07/05 23:41:31;;;;;;;3.50;2.83;;;;;;;;;;6245776;23;20626;-93
2022/07/05 23:43:59;;;;;;;4.70;3.10;;;;;;;;;;6244971;23;20219;-91
2022/07/05 23:46:27;;;;;;;3.60;2.80;;;;;;;;;;6245097;23;20192;-92
2022/07/05 23:49:03;;;;;;;3.05;2.47;;;;;;;;;;6245847;22;20268;-90
2022/07/05 23:51:32;;;;;;;2.83;2.50;;;;;;;;;;6245804;23;20187;-90
2022/07/05 23:54:02;;;;;;;3.67;2.80;;;;;;;;;;6245857;23;20169;-92
2022/07/05 23:56:35;;;;;;;4.43;2.67;;;;;;;;;;6245407;23;20215;-91
